sensor_id;sensor_type;location;lat;lon;timestamp;pressure;altitude;pressure_sealevel;temperature;humidity
76590;BME280;65471;55.908;37.880;2023-04-19T00:02:02;100761.91;;;8.45;48.60
76590;BME280;65471;55.908;37.880;2023-04-19T00:04:29;100749.81;;;8.41;48.66
76590;BME280;65471;55.908;37.880;2023-04-19T00:06:56;100750.63;;;8.42;48.58
76590;BME280;65471;55.908;37.880;2023-04-19T00:09:24;100752.50;;;8.41;48.73
76590;BME280;65471;55.908;37.880;2023-04-19T00:11:51;100754.38;;;8.41;48.76
76590;BME280;65471;55.908;37.880;2023-04-19T00:14:18;100753.72;;;8.39;48.59
76590;BME280;65471;55.908;37.880;2023-04-19T00:16:45;100769.69;;;8.40;48.68
76590;BME280;65471;55.908;37.880;2023-04-19T00:19:12;100760.78;;;8.40;48.82
76590;BME280;65471;55.908;37.880;2023-04-19T00:21:40;100774.91;;;8.42;48.63
76590;BME280;65471;55.908;37.880;2023-04-19T00:24:06;100779.84;;;8.38;49.54
76590;BME280;65471;55.908;37.880;2023-04-19T00:26:33;100774.66;;;8.37;49.69
76590;BME280;65471;55.908;37.880;2023-04-19T00:29:00;100774.00;;;8.35;49.61
76590;BME280;65471;55.908;37.880;2023-04-19T00:31:27;100767.59;;;8.36;49.48
76590;BME280;65471;55.908;37.880;2023-04-19T00:33:55;100769.06;;;8.38;48.49
76590;BME280;65471;55.908;37.880;2023-04-19T00:36:22;100764.78;;;8.44;47.82
76590;BME280;65471;55.908;37.880;2023-04-19T00:38:49;100764.22;;;8.49;47.58
76590;BME280;65471;55.908;37.880;2023-04-19T00:41:16;100764.22;;;8.49;47.59
76590;BME280;65471;55.908;37.880;2023-04-19T00:43:43;100768.38;;;8.51;47.60
76590;BME280;65471;55.908;37.880;2023-04-19T00:46:10;100774.41;;;8.53;47.47
76590;BME280;65471;55.908;37.880;2023-04-19T00:48:37;100765.50;;;8.53;47.65
76590;BME280;65471;55.908;37.880;2023-04-19T00:51:04;100775.06;;;8.55;47.34
76590;BME280;65471;55.908;37.880;2023-04-19T00:53:31;100772.16;;;8.57;46.94
76590;BME280;65471;55.908;37.880;2023-04-19T00:56:01;100770.97;;;8.59;46.69
76590;BME280;65471;55.908;37.880;2023-04-19T00:58:30;100769.91;;;8.60;46.65
76590;BME280;65471;55.908;37.880;2023-04-19T01:00:57;100775.31;;;8.60;46.67
76590;BME280;65471;55.908;37.880;2023-04-19T01:03:25;100780.69;;;8.60;46.82
76590;BME280;65471;55.908;37.880;2023-04-19T01:05:55;100773.25;;;8.62;46.45
76590;BME280;65471;55.908;37.880;2023-04-19T01:08:23;100768.88;;;8.61;46.67
76590;BME280;65471;55.908;37.880;2023-04-19T01:10:49;100770.75;;;8.61;46.25
76590;BME280;65471;55.908;37.880;2023-04-19T01:13:16;100773.25;;;8.62;46.30
76590;BME280;65471;55.908;37.880;2023-04-19T01:15:43;100778.66;;;8.62;46.58
76590;BME280;65471;55.908;37.880;2023-04-19T01:18:10;100768.88;;;8.61;46.67
76590;BME280;65471;55.908;37.880;2023-04-19T01:20:37;100775.31;;;8.60;46.64
76590;BME280;65471;55.908;37.880;2023-04-19T01:23:04;100770.97;;;8.59;46.84
76590;BME280;65471;55.908;37.880;2023-04-19T01:25:31;100770.97;;;8.59;46.74
76590;BME280;65471;55.908;37.880;2023-04-19T01:27:58;100777.16;;;8.60;46.75
76590;BME280;65471;55.908;37.880;2023-04-19T01:30:24;100772.59;;;8.60;46.63
76590;BME280;65471;55.908;37.880;2023-04-19T01:32:51;100776.97;;;8.61;46.48
76590;BME280;65471;55.908;37.880;2023-04-19T01:35:18;100775.31;;;8.60;46.46
76590;BME280;65471;55.908;37.880;2023-04-19T01:37:46;100778.38;;;8.57;46.88
76590;BME280;65471;55.908;37.880;2023-04-19T01:40:14;100775.69;;;8.57;46.93
76590;BME280;65471;55.908;37.880;2023-04-19T01:42:41;100776.72;;;8.56;46.83
76590;BME280;65471;55.908;37.880;2023-04-19T01:45:08;100770.50;;;8.56;47.07
76590;BME280;65471;55.908;37.880;2023-04-19T01:47:35;100776.09;;;8.54;47.21
76590;BME280;65471;55.908;37.880;2023-04-19T01:50:02;100776.47;;;8.51;47.36
76590;BME280;65471;55.908;37.880;2023-04-19T01:52:29;100767.34;;;8.52;47.08
76590;BME280;65471;55.908;37.880;2023-04-19T01:54:56;100771.72;;;8.53;47.13
76590;BME280;65471;55.908;37.880;2023-04-19T01:57:23;100769.41;;;8.50;47.23
76590;BME280;65471;55.908;37.880;2023-04-19T01:59:52;100764.00;;;8.50;47.11
76590;BME280;65471;55.908;37.880;2023-04-19T02:02:19;100760.88;;;8.46;47.31
76590;BME280;65471;55.908;37.880;2023-04-19T02:04:46;100764.78;;;8.44;47.53
76590;BME280;65471;55.908;37.880;2023-04-19T02:07:13;100764.13;;;8.42;48.07
76590;BME280;65471;55.908;37.880;2023-04-19T02:09:40;100758.09;;;8.40;47.54
76590;BME280;65471;55.908;37.880;2023-04-19T02:12:08;100758.28;;;8.38;47.56
76590;BME280;65471;55.908;37.880;2023-04-19T02:14:35;100757.63;;;8.36;47.48
76590;BME280;65471;55.908;37.880;2023-04-19T02:17:02;100755.97;;;8.35;47.35
76590;BME280;65471;55.908;37.880;2023-04-19T02:19:28;100754.31;;;8.34;47.34
76590;BME280;65471;55.908;37.880;2023-04-19T02:21:55;100760.72;;;8.33;47.59
76590;BME280;65471;55.908;37.880;2023-04-19T02:24:23;100756.72;;;8.29;47.82
76590;BME280;65471;55.908;37.880;2023-04-19T02:26:51;100768.72;;;8.26;48.05
76590;BME280;65471;55.908;37.880;2023-04-19T02:29:18;100772.47;;;8.25;47.83
76590;BME280;65471;55.908;37.880;2023-04-19T02:31:44;100777.19;;;8.23;48.24
76590;BME280;65471;55.908;37.880;2023-04-19T02:34:12;100765.78;;;8.21;48.70
76590;BME280;65471;55.908;37.880;2023-04-19T02:36:39;100770.31;;;8.21;48.64
76590;BME280;65471;55.908;37.880;2023-04-19T02:39:06;100773.41;;;8.18;48.73
76590;BME280;65471;55.908;37.880;2023-04-19T02:41:33;100773.59;;;8.16;49.20
76590;BME280;65471;55.908;37.880;2023-04-19T02:44:00;100778.34;;;8.14;49.25
76590;BME280;65471;55.908;37.880;2023-04-19T02:46:27;100777.69;;;8.12;48.90
76590;BME280;65471;55.908;37.880;2023-04-19T02:48:54;100777.69;;;8.12;48.97
76590;BME280;65471;55.908;37.880;2023-04-19T02:51:20;100785.78;;;8.12;48.57
76590;BME280;65471;55.908;37.880;2023-04-19T02:53:47;100782.25;;;8.11;48.33
76590;BME280;65471;55.908;37.880;2023-04-19T02:56:14;100785.16;;;8.10;48.94
76590;BME280;65471;55.908;37.880;2023-04-19T02:58:42;100788.84;;;8.09;49.24
76590;BME280;65471;55.908;37.880;2023-04-19T03:01:09;100789.53;;;8.11;49.33
76590;BME280;65471;55.908;37.880;2023-04-19T03:03:36;100786.44;;;8.14;49.04
76590;BME280;65471;55.908;37.880;2023-04-19T03:06:03;100794.72;;;8.12;49.25
76590;BME280;65471;55.908;37.880;2023-04-19T03:08:30;100792.22;;;8.11;49.71
76590;BME280;65471;55.908;37.880;2023-04-19T03:10:57;100788.84;;;8.09;49.92
76590;BME280;65471;55.908;37.880;2023-04-19T03:13:24;100783.84;;;8.06;50.12
76590;BME280;65471;55.908;37.880;2023-04-19T03:15:51;100791.56;;;8.09;50.31
76590;BME280;65471;55.908;37.880;2023-04-19T03:18:18;100792.56;;;8.08;50.47
76590;BME280;65471;55.908;37.880;2023-04-19T03:20:45;100790.53;;;8.10;50.46
76590;BME280;65471;55.908;37.880;2023-04-19T03:23:12;100790.53;;;8.10;50.51
76590;BME280;65471;55.908;37.880;2023-04-19T03:25:39;100795.94;;;8.10;50.18
76590;BME280;65471;55.908;37.880;2023-04-19T03:28:05;100793.88;;;8.12;50.28
76590;BME280;65471;55.908;37.880;2023-04-19T03:30:32;100802.59;;;8.14;50.37
76590;BME280;65471;55.908;37.880;2023-04-19T03:32:59;100801.56;;;8.15;50.34
76590;BME280;65471;55.908;37.880;2023-04-19T03:35:27;100805.94;;;8.16;50.29
76590;BME280;65471;55.908;37.880;2023-04-19T03:37:54;100802.22;;;8.17;49.92
76590;BME280;65471;55.908;37.880;2023-04-19T03:40:21;100796.63;;;8.19;50.53
76590;BME280;65471;55.908;37.880;2023-04-19T03:42:48;100806.19;;;8.21;50.68
76590;BME280;65471;55.908;37.880;2023-04-19T03:45:15;100803.13;;;8.24;50.92
76590;BME280;65471;55.908;37.880;2023-04-19T03:47:42;100796.06;;;8.23;50.90
76590;BME280;65471;55.908;37.880;2023-04-19T03:50:09;100799.59;;;8.24;51.11
76590;BME280;65471;55.908;37.880;2023-04-19T03:52:36;100799.59;;;8.24;51.25
76590;BME280;65471;55.908;37.880;2023-04-19T03:55:03;100799.41;;;8.25;51.26
76590;BME280;65471;55.908;37.880;2023-04-19T03:57:31;100794.03;;;8.25;51.34
76590;BME280;65471;55.908;37.880;2023-04-19T03:59:59;100804.59;;;8.27;51.56
76590;BME280;65471;55.908;37.880;2023-04-19T04:02:26;100803.94;;;8.25;51.56
76590;BME280;65471;55.908;37.880;2023-04-19T04:04:53;100799.22;;;8.27;51.67
76590;BME280;65471;55.908;37.880;2023-04-19T04:07:21;100805.91;;;8.31;51.02
76590;BME280;65471;55.908;37.880;2023-04-19T04:09:49;100809.88;;;8.35;51.06
76590;BME280;65471;55.908;37.880;2023-04-19T04:12:16;100799.53;;;8.39;50.38
76590;BME280;65471;55.908;37.880;2023-04-19T04:14:43;100805.03;;;8.45;49.62
76590;BME280;65471;55.908;37.880;2023-04-19T04:17:09;100805.06;;;8.52;49.05
76590;BME280;65471;55.908;37.880;2023-04-19T04:19:36;100793.75;;;8.57;49.01
76590;BME280;65471;55.908;37.880;2023-04-19T04:22:03;100795.66;;;8.63;48.77
76590;BME280;65471;55.908;37.880;2023-04-19T04:24:40;100810.63;;;8.66;48.65
76590;BME280;65471;55.908;37.880;2023-04-19T04:27:09;100807.31;;;8.70;48.35
76590;BME280;65471;55.908;37.880;2023-04-19T04:29:36;100804.69;;;8.77;48.61
76590;BME280;65471;55.908;37.880;2023-04-19T04:32:06;100805.97;;;8.81;48.30
76590;BME280;65471;55.908;37.880;2023-04-19T04:34:37;100810.78;;;8.86;47.76
76590;BME280;65471;55.908;37.880;2023-04-19T04:37:04;100808.16;;;8.92;48.01
76590;BME280;65471;55.908;37.880;2023-04-19T04:39:31;100810.25;;;8.97;48.10
76590;BME280;65471;55.908;37.880;2023-04-19T04:42:00;100819.44;;;9.03;47.51
76590;BME280;65471;55.908;37.880;2023-04-19T04:44:27;100812.41;;;9.08;47.47
76590;BME280;65471;55.908;37.880;2023-04-19T04:46:54;100815.16;;;9.15;47.26
76590;BME280;65471;55.908;37.880;2023-04-19T04:49:21;100816.41;;;9.19;47.45
76590;BME280;65471;55.908;37.880;2023-04-19T04:51:48;100822.47;;;9.21;47.25
76590;BME280;65471;55.908;37.880;2023-04-19T04:54:15;100816.47;;;9.26;47.41
76590;BME280;65471;55.908;37.880;2023-04-19T04:56:42;100818.97;;;9.27;47.33
76590;BME280;65471;55.908;37.880;2023-04-19T04:59:09;100811.13;;;9.32;47.05
76590;BME280;65471;55.908;37.880;2023-04-19T05:01:36;100814.44;;;9.35;47.15
76590;BME280;65471;55.908;37.880;2023-04-19T05:04:03;100824.84;;;9.38;46.73
76590;BME280;65471;55.908;37.880;2023-04-19T05:06:30;100819.06;;;9.41;46.78
76590;BME280;65471;55.908;37.880;2023-04-19T05:08:58;100821.78;;;9.41;46.73
76590;BME280;65471;55.908;37.880;2023-04-19T05:11:25;100817.81;;;9.43;46.62
76590;BME280;65471;55.908;37.880;2023-04-19T05:13:52;100822.84;;;9.46;46.07
76590;BME280;65471;55.908;37.880;2023-04-19T05:16:19;100827.66;;;9.51;46.00
76590;BME280;65471;55.908;37.880;2023-04-19T05:18:47;100830.34;;;9.51;46.09
76590;BME280;65471;55.908;37.880;2023-04-19T05:21:13;100834.75;;;9.59;46.15
76590;BME280;65471;55.908;37.880;2023-04-19T05:23:41;100829.38;;;9.65;46.27
76590;BME280;65471;55.908;37.880;2023-04-19T05:26:08;100835.84;;;9.71;46.42
76590;BME280;65471;55.908;37.880;2023-04-19T05:28:39;100832.34;;;9.77;46.27
76590;BME280;65471;55.908;37.880;2023-04-19T05:31:07;100827.81;;;9.84;46.05
76590;BME280;65471;55.908;37.880;2023-04-19T05:33:34;100833.44;;;9.90;45.70
76590;BME280;65471;55.908;37.880;2023-04-19T05:36:01;100837.41;;;9.94;45.97
76590;BME280;65471;55.908;37.880;2023-04-19T05:38:28;100840.97;;;10.01;45.41
76590;BME280;65471;55.908;37.880;2023-04-19T05:40:55;100841.41;;;10.05;44.94
76590;BME280;65471;55.908;37.880;2023-04-19T05:43:22;100841.84;;;10.08;44.68
76590;BME280;65471;55.908;37.880;2023-04-19T05:45:49;100843.94;;;10.13;44.63
76590;BME280;65471;55.908;37.880;2023-04-19T05:48:16;100836.06;;;10.18;44.29
76590;BME280;65471;55.908;37.880;2023-04-19T05:50:42;100837.94;;;10.24;44.56
76590;BME280;65471;55.908;37.880;2023-04-19T05:53:09;100839.19;;;10.28;44.12
76590;BME280;65471;55.908;37.880;2023-04-19T05:55:36;100843.38;;;10.31;44.41
76590;BME280;65471;55.908;37.880;2023-04-19T05:58:03;100848.78;;;10.31;44.71
76590;BME280;65471;55.908;37.880;2023-04-19T06:00:30;100843.38;;;10.31;44.88
76590;BME280;65471;55.908;37.880;2023-04-19T06:02:58;100844.19;;;10.31;45.09
76590;BME280;65471;55.908;37.880;2023-04-19T06:05:25;100842.09;;;10.27;45.25
76590;BME280;65471;55.908;37.880;2023-04-19T06:07:52;100857.88;;;10.23;45.26
76590;BME280;65471;55.908;37.880;2023-04-19T06:10:28;100856.03;;;10.24;45.19
76590;BME280;65471;55.908;37.880;2023-04-19T06:13:14;100852.31;;;10.25;45.23
76590;BME280;65471;55.908;37.880;2023-04-19T06:15:41;100841.91;;;10.28;45.08
76590;BME280;65471;55.908;37.880;2023-04-19T06:18:08;100841.50;;;10.31;44.96
76590;BME280;65471;55.908;37.880;2023-04-19T06:20:46;100845.88;;;10.32;45.23
76590;BME280;65471;55.908;37.880;2023-04-19T06:23:12;100850.06;;;10.35;45.20
76590;BME280;65471;55.908;37.880;2023-04-19T06:25:40;100846.75;;;10.40;45.42
76590;BME280;65471;55.908;37.880;2023-04-19T06:28:07;100846.13;;;10.44;44.85
76590;BME280;65471;55.908;37.880;2023-04-19T06:30:34;100856.16;;;10.50;44.97
76590;BME280;65471;55.908;37.880;2023-04-19T06:33:01;100849.69;;;10.58;45.08
76590;BME280;65471;55.908;37.880;2023-04-19T06:35:28;100846.81;;;10.66;44.70
76590;BME280;65471;55.908;37.880;2023-04-19T06:37:55;100848.25;;;10.76;44.03
76590;BME280;65471;55.908;37.880;2023-04-19T06:40:22;100849.94;;;10.83;44.22
76590;BME280;65471;55.908;37.880;2023-04-19T06:42:48;100850.59;;;10.92;44.39
76590;BME280;65471;55.908;37.880;2023-04-19T06:45:15;100849.97;;;11.03;44.42
76590;BME280;65471;55.908;37.880;2023-04-19T06:47:42;100853.91;;;11.14;44.17
76590;BME280;65471;55.908;37.880;2023-04-19T06:50:10;100851.84;;;11.23;44.21
76590;BME280;65471;55.908;37.880;2023-04-19T06:52:37;100851.19;;;11.34;44.25
76590;BME280;65471;55.908;37.880;2023-04-19T06:55:05;100852.41;;;11.45;43.85
76590;BME280;65471;55.908;37.880;2023-04-19T06:57:32;100855.13;;;11.52;43.35
76590;BME280;65471;55.908;37.880;2023-04-19T07:00:00;100859.91;;;11.56;43.17
76590;BME280;65471;55.908;37.880;2023-04-19T07:02:27;100850.31;;;11.61;43.36
76590;BME280;65471;55.908;37.880;2023-04-19T07:04:54;100854.44;;;11.70;43.15
76590;BME280;65471;55.908;37.880;2023-04-19T07:07:21;100854.19;;;11.85;42.92
76590;BME280;65471;55.908;37.880;2023-04-19T07:09:48;100851.69;;;11.97;43.15
76590;BME280;65471;55.908;37.880;2023-04-19T07:12:15;100848.72;;;12.05;42.64
76590;BME280;65471;55.908;37.880;2023-04-19T07:14:42;100848.09;;;12.09;42.93
76590;BME280;65471;55.908;37.880;2023-04-19T07:17:09;100847.63;;;12.19;42.67
76590;BME280;65471;55.908;37.880;2023-04-19T07:19:36;100845.31;;;12.23;42.60
76590;BME280;65471;55.908;37.880;2023-04-19T07:22:03;100849.63;;;12.37;42.31
76590;BME280;65471;55.908;37.880;2023-04-19T07:24:31;100844.13;;;12.51;42.27
76590;BME280;65471;55.908;37.880;2023-04-19T07:26:58;100851.34;;;12.64;42.13
76590;BME280;65471;55.908;37.880;2023-04-19T07:29:25;100852.75;;;12.73;41.77
76590;BME280;65471;55.908;37.880;2023-04-19T07:31:52;100846.88;;;12.76;41.41
76590;BME280;65471;55.908;37.880;2023-04-19T07:34:20;100850.59;;;12.82;41.49
76590;BME280;65471;55.908;37.880;2023-04-19T07:36:47;100845.94;;;12.89;41.21
76590;BME280;65471;55.908;37.880;2023-04-19T07:39:14;100842.91;;;13.04;41.44
76590;BME280;65471;55.908;37.880;2023-04-19T07:41:41;100848.00;;;13.19;41.24
76590;BME280;65471;55.908;37.880;2023-04-19T07:44:08;100845.38;;;13.30;40.59
76590;BME280;65471;55.908;37.880;2023-04-19T07:46:37;100841.91;;;13.49;40.40
76590;BME280;65471;55.908;37.880;2023-04-19T07:49:03;100844.00;;;13.65;39.61
76590;BME280;65471;55.908;37.880;2023-04-19T07:51:30;100839.94;;;13.74;39.77
76590;BME280;65471;55.908;37.880;2023-04-19T07:53:57;100827.13;;;13.81;39.04
76590;BME280;65471;55.908;37.880;2023-04-19T07:56:24;100837.69;;;13.90;38.91
76590;BME280;65471;55.908;37.880;2023-04-19T07:58:52;100842.13;;;14.03;38.75
76590;BME280;65471;55.908;37.880;2023-04-19T08:01:32;100838.69;;;14.26;38.73
76590;BME280;65471;55.908;37.880;2023-04-19T08:03:59;100835.78;;;14.39;38.73
76590;BME280;65471;55.908;37.880;2023-04-19T08:06:27;100838.06;;;14.42;38.69
76590;BME280;65471;55.908;37.880;2023-04-19T08:08:56;100841.44;;;14.38;38.72
76590;BME280;65471;55.908;37.880;2023-04-19T08:11:22;100836.06;;;14.49;38.54
76590;BME280;65471;55.908;37.880;2023-04-19T08:13:50;100830.66;;;14.61;38.61
76590;BME280;65471;55.908;37.880;2023-04-19T08:16:37;100834.13;;;14.69;39.05
76590;BME280;65471;55.908;37.880;2023-04-19T08:19:06;100820.19;;;14.77;38.36
76590;BME280;65471;55.908;37.880;2023-04-19T08:21:33;100837.47;;;14.82;38.09
76590;BME280;65471;55.908;37.880;2023-04-19T08:24:07;100826.59;;;14.82;38.28
76590;BME280;65471;55.908;37.880;2023-04-19T08:26:34;100827.88;;;14.80;37.80
76590;BME280;65471;55.908;37.880;2023-04-19T08:29:01;100831.44;;;14.80;37.70
76590;BME280;65471;55.908;37.880;2023-04-19T08:31:28;100826.47;;;14.89;37.71
76590;BME280;65471;55.908;37.880;2023-04-19T08:33:55;100825.88;;;14.99;37.52
76590;BME280;65471;55.908;37.880;2023-04-19T08:36:22;100826.03;;;15.04;37.21
76590;BME280;65471;55.908;37.880;2023-04-19T08:39:05;100829.47;;;15.11;37.21
76590;BME280;65471;55.908;37.880;2023-04-19T08:41:54;100826.03;;;15.28;36.94
76590;BME280;65471;55.908;37.880;2023-04-19T08:44:36;100821.03;;;15.48;36.50
76590;BME280;65471;55.908;37.880;2023-04-19T08:47:27;100815.09;;;15.63;36.72
76590;BME280;65471;55.908;37.880;2023-04-19T08:50:01;100818.75;;;15.69;36.31
76590;BME280;65471;55.908;37.880;2023-04-19T08:52:36;100822.31;;;15.81;36.40
76590;BME280;65471;55.908;37.880;2023-04-19T08:55:21;100815.63;;;16.01;35.88
76590;BME280;65471;55.908;37.880;2023-04-19T08:57:48;100804.53;;;16.19;35.17
76590;BME280;65471;55.908;37.880;2023-04-19T09:00:15;100810.09;;;16.42;34.29
76590;BME280;65471;55.908;37.880;2023-04-19T09:02:50;100818.66;;;16.45;33.69
76590;BME280;65471;55.908;37.880;2023-04-19T09:05:18;100807.81;;;16.33;33.65
76590;BME280;65471;55.908;37.880;2023-04-19T09:07:46;100807.44;;;16.30;33.55
76590;BME280;65471;55.908;37.880;2023-04-19T09:10:18;100809.63;;;16.45;33.49
76590;BME280;65471;55.908;37.880;2023-04-19T09:13:04;100802.69;;;16.54;33.19
76590;BME280;65471;55.908;37.880;2023-04-19T09:15:39;100796.25;;;16.77;32.50
76590;BME280;65471;55.908;37.880;2023-04-19T09:18:08;100792.97;;;17.09;32.37
76590;BME280;65471;55.908;37.880;2023-04-19T09:20:42;100806.00;;;17.41;31.63
76590;BME280;65471;55.908;37.880;2023-04-19T09:23:12;100783.00;;;17.59;31.29
76590;BME280;65471;55.908;37.880;2023-04-19T09:25:49;100786.94;;;17.46;31.32
76590;BME280;65471;55.908;37.880;2023-04-19T09:28:36;100783.47;;;17.34;31.25
76590;BME280;65471;55.908;37.880;2023-04-19T09:31:10;100780.19;;;17.32;31.09
76590;BME280;65471;55.908;37.880;2023-04-19T09:34:14;100778.56;;;17.14;30.96
76590;BME280;65471;55.908;37.880;2023-04-19T09:36:42;100778.00;;;17.12;31.25
76590;BME280;65471;55.908;37.880;2023-04-19T09:39:09;100773.44;;;17.17;31.36
76590;BME280;65471;55.908;37.880;2023-04-19T09:41:50;100772.53;;;17.34;31.68
76590;BME280;65471;55.908;37.880;2023-04-19T09:44:18;100767.41;;;17.37;31.90
76590;BME280;65471;55.908;37.880;2023-04-19T09:46:49;100775.88;;;17.36;31.35
76590;BME280;65471;55.908;37.880;2023-04-19T09:49:22;100759.31;;;17.25;30.64
76590;BME280;65471;55.908;37.880;2023-04-19T09:52:07;100767.72;;;17.19;31.01
76590;BME280;65471;55.908;37.880;2023-04-19T09:54:36;100771.81;;;17.21;30.98
76590;BME280;65471;55.908;37.880;2023-04-19T09:57:03;100769.94;;;17.22;31.49
76590;BME280;65471;55.908;37.880;2023-04-19T09:59:30;100753.31;;;17.29;31.10
76590;BME280;65471;55.908;37.880;2023-04-19T10:01:58;100762.50;;;17.39;30.66
76590;BME280;65471;55.908;37.880;2023-04-19T10:04:26;100754.31;;;17.39;30.66
76590;BME280;65471;55.908;37.880;2023-04-19T10:07:14;100761.38;;;17.57;30.37
76590;BME280;65471;55.908;37.880;2023-04-19T10:09:45;100761.88;;;17.76;30.36
76590;BME280;65471;55.908;37.880;2023-04-19T10:12:23;100750.28;;;18.14;29.84
76590;BME280;65471;55.908;37.880;2023-04-19T10:14:54;100755.84;;;17.97;29.89
76590;BME280;65471;55.908;37.880;2023-04-19T10:17:23;100750.69;;;17.78;30.28
76590;BME280;65471;55.908;37.880;2023-04-19T10:19:55;100756.03;;;17.68;29.51
76590;BME280;65471;55.908;37.880;2023-04-19T10:22:23;100772.91;;;17.82;29.85
76590;BME280;65471;55.908;37.880;2023-04-19T10:25:13;100754.97;;;18.18;29.24
76590;BME280;65471;55.908;37.880;2023-04-19T10:27:42;100754.31;;;18.66;28.90
76590;BME280;65471;55.908;37.880;2023-04-19T10:30:21;100747.72;;;18.99;28.17
76590;BME280;65471;55.908;37.880;2023-04-19T10:32:54;100749.13;;;19.07;28.24
76590;BME280;65471;55.908;37.880;2023-04-19T10:35:27;100743.72;;;19.17;28.19
76590;BME280;65471;55.908;37.880;2023-04-19T10:43:28;100735.81;;;18.51;28.13
76590;BME280;65471;55.908;37.880;2023-04-19T10:46:01;100741.22;;;18.40;28.06
76590;BME280;65471;55.908;37.880;2023-04-19T10:48:33;100734.66;;;18.14;28.40
76590;BME280;65471;55.908;37.880;2023-04-19T10:51:14;100743.41;;;17.89;28.51
76590;BME280;65471;55.908;37.880;2023-04-19T11:04:16;100726.25;;;17.27;29.24
76590;BME280;65471;55.908;37.880;2023-04-19T11:09:27;100711.28;;;17.52;28.64
76590;BME280;65471;55.908;37.880;2023-04-19T11:11:59;100723.22;;;17.68;28.64
76590;BME280;65471;55.908;37.880;2023-04-19T11:14:30;100719.50;;;17.79;28.46
76590;BME280;65471;55.908;37.880;2023-04-19T11:16:59;100711.50;;;17.94;27.89
76590;BME280;65471;55.908;37.880;2023-04-19T11:19:26;100722.97;;;17.91;27.95
76590;BME280;65471;55.908;37.880;2023-04-19T11:21:57;100719.81;;;17.83;28.03
76590;BME280;65471;55.908;37.880;2023-04-19T11:24:24;100715.06;;;17.73;28.11
76590;BME280;65471;55.908;37.880;2023-04-19T11:26:51;100718.69;;;17.56;28.58
76590;BME280;65471;55.908;37.880;2023-04-19T11:29:21;100718.00;;;17.44;28.52
76590;BME280;65471;55.908;37.880;2023-04-19T11:31:47;100708.47;;;17.24;28.62
76590;BME280;65471;55.908;37.880;2023-04-19T11:34:15;100703.75;;;17.20;28.93
76590;BME280;65471;55.908;37.880;2023-04-19T11:36:51;100708.47;;;17.24;28.69
76590;BME280;65471;55.908;37.880;2023-04-19T11:39:19;100705.03;;;17.34;28.29
76590;BME280;65471;55.908;37.880;2023-04-19T11:41:47;100706.81;;;17.23;28.56
76590;BME280;65471;55.908;37.880;2023-04-19T11:44:18;100707.31;;;17.20;28.39
76590;BME280;65471;55.908;37.880;2023-04-19T11:46:58;100693.78;;;17.31;28.29
76590;BME280;65471;55.908;37.880;2023-04-19T11:49:30;100689.72;;;17.33;28.73
76590;BME280;65471;55.908;37.880;2023-04-19T11:51:59;100692.38;;;17.28;28.91
76590;BME280;65471;55.908;37.880;2023-04-19T11:54:32;100688.19;;;17.20;28.72
76590;BME280;65471;55.908;37.880;2023-04-19T11:57:03;100693.91;;;17.19;28.35
76590;BME280;65471;55.908;37.880;2023-04-19T11:59:32;100692.34;;;17.23;28.40
76590;BME280;65471;55.908;37.880;2023-04-19T12:02:09;100684.97;;;17.95;27.82
76590;BME280;65471;55.908;37.880;2023-04-19T12:04:38;100686.69;;;19.19;26.96
76590;BME280;65471;55.908;37.880;2023-04-19T12:07:06;100683.94;;;19.88;26.05
76590;BME280;65471;55.908;37.880;2023-04-19T12:09:34;100677.28;;;21.07;25.30
76590;BME280;65471;55.908;37.880;2023-04-19T12:12:02;100676.25;;;21.63;24.78
76590;BME280;65471;55.908;37.880;2023-04-19T12:14:29;100673.38;;;21.84;24.31
76590;BME280;65471;55.908;37.880;2023-04-19T12:17:04;100679.72;;;21.24;24.04
76590;BME280;65471;55.908;37.880;2023-04-19T12:19:51;100675.44;;;20.56;24.39
76590;BME280;65471;55.908;37.880;2023-04-19T12:22:18;100676.81;;;21.60;23.85
76590;BME280;65471;55.908;37.880;2023-04-19T12:24:52;100673.97;;;22.55;22.87
76590;BME280;65471;55.908;37.880;2023-04-19T12:27:19;100666.56;;;22.74;22.34
76590;BME280;65471;55.908;37.880;2023-04-19T12:29:46;100674.03;;;22.74;22.42
76590;BME280;65471;55.908;37.880;2023-04-19T12:32:13;100669.84;;;22.82;22.69
76590;BME280;65471;55.908;37.880;2023-04-19T12:34:42;100664.66;;;22.75;22.69
76590;BME280;65471;55.908;37.880;2023-04-19T12:37:09;100650.25;;;22.54;22.75
76590;BME280;65471;55.908;37.880;2023-04-19T12:39:35;100659.13;;;21.71;22.83
76590;BME280;65471;55.908;37.880;2023-04-19T12:42:03;100663.66;;;20.61;23.96
76590;BME280;65471;55.908;37.880;2023-04-19T12:44:31;100653.97;;;19.71;25.02
76590;BME280;65471;55.908;37.880;2023-04-19T12:46:58;100646.94;;;19.11;25.27
76590;BME280;65471;55.908;37.880;2023-04-19T12:49:25;100645.59;;;18.71;25.50
76590;BME280;65471;55.908;37.880;2023-04-19T12:51:52;100644.31;;;18.46;26.00
76590;BME280;65471;55.908;37.880;2023-04-19T12:54:22;100655.06;;;18.53;25.92
76590;BME280;65471;55.908;37.880;2023-04-19T12:56:49;100654.56;;;18.61;25.72
76590;BME280;65471;55.908;37.880;2023-04-19T12:59:16;100648.13;;;18.40;25.77
76590;BME280;65471;55.908;37.880;2023-04-19T13:01:44;100654.22;;;18.15;25.95
76590;BME280;65471;55.908;37.880;2023-04-19T13:04:11;100645.09;;;18.04;26.46
76590;BME280;65471;55.908;37.880;2023-04-19T13:06:38;100639.50;;;18.21;26.54
76590;BME280;65471;55.908;37.880;2023-04-19T13:09:05;100637.25;;;18.13;26.47
76590;BME280;65471;55.908;37.880;2023-04-19T13:11:40;100633.66;;;17.85;26.57
76590;BME280;65471;55.908;37.880;2023-04-19T13:14:07;100635.69;;;17.68;27.16